createdAt,value
2016-05-19T00:00:41.651Z,79.43
2016-05-19T00:01:13.416Z,79.38
2016-05-19T00:02:10.403Z,79.8
2016-05-19T00:03:41.721Z,79.67
2016-05-19T00:04:10.456Z,79.96
2016-05-19T00:05:10.473Z,79.86
2016-05-19T00:06:10.492Z,80.43
2016-05-19T00:07:13.385Z,80.62
2016-05-19T00:08:10.528Z,80.53
2016-05-19T00:09:10.562Z,80.72
2016-05-19T00:10:10.550Z,80.62
2016-05-19T00:11:10.600Z,81.2
2016-05-19T00:12:10.617Z,81.29
2016-05-19T00:13:23.358Z,81.1
2016-05-19T00:14:23.392Z,81.29
2016-05-19T00:15:13.829Z,81.29
2016-05-19T00:16:29.897Z,81.77
2016-05-19T00:17:10.756Z,81.67
2016-05-19T00:18:10.728Z,81.67
2016-05-19T00:19:29.952Z,81.38
2016-05-19T00:20:18.438Z,81.77
2016-05-19T00:21:36.457Z,81.54
2016-05-19T00:22:23.522Z,81.44
2016-05-19T00:23:10.960Z,81.73
2016-05-19T00:24:10.837Z,82.01
2016-05-19T00:25:10.856Z,82.4
2016-05-19T00:26:10.874Z,82.2
2016-05-19T00:27:10.907Z,82.97
2016-05-19T00:28:10.926Z,82.3
2016-05-19T00:29:10.945Z,82.87
2016-05-19T00:30:11.041Z,83.06
2016-05-19T00:31:10.981Z,83.64
2016-05-19T00:32:11.015Z,83.54
2016-05-19T00:33:11.001Z,83.73
2016-05-19T00:34:10.895Z,84.11
2016-05-19T00:35:11.070Z,83.92
2016-05-19T00:36:10.932Z,84.59
2016-05-19T00:37:11.092Z,84.49
2016-05-19T00:38:11.125Z,84.78
2016-05-19T00:39:11.128Z,84.78
2016-05-19T00:40:11.146Z,84.69
2016-05-19T00:41:11.180Z,84.49
2016-05-19T00:42:11.183Z,84.59
2016-05-19T00:43:12.639Z,85.31
2016-05-19T00:44:11.235Z,85.06
2016-05-19T00:45:11.128Z,85.12
2016-05-19T00:46:11.100Z,85.02
2016-05-19T00:47:11.305Z,85.78
2016-05-19T00:48:11.308Z,85.5
2016-05-19T00:49:11.327Z,85.88
2016-05-19T00:50:11.360Z,85.88
2016-05-19T00:51:11.363Z,85.88
2016-05-19T00:52:11.366Z,86.36
2016-05-19T00:53:11.399Z,86.45
2016-05-19T00:54:11.418Z,86.65
2016-05-19T00:55:11.436Z,86.55
2016-05-19T00:56:24.192Z,86.83
2016-05-19T00:57:12.896Z,86.83
2016-05-19T00:58:11.491Z,87.5
2016-05-19T00:59:11.509Z,87.12
2016-05-19T01:00:11.544Z,87.4
2016-05-19T01:01:11.562Z,87.5
2016-05-19T01:02:24.317Z,87.6
2016-05-19T01:03:11.598Z,87.88
2016-05-19T01:04:11.601Z,87.93
2016-05-19T01:05:11.635Z,88.22
2016-05-19T01:06:14.670Z,88.31
2016-05-19T01:07:11.672Z,88.89
2016-05-19T01:08:11.534Z,88.89
2016-05-19T01:09:11.709Z,89.36
2016-05-19T01:10:13.148Z,89.65
2016-05-19T01:11:11.839Z,89.65
2016-05-19T01:12:11.606Z,89.46
2016-05-19T01:13:11.922Z,89.65
2016-05-19T01:14:11.800Z,89.94
2016-05-19T01:15:11.803Z,89.84
2016-05-19T01:16:14.883Z,89.94
2016-05-19T01:17:11.699Z,89.84
2016-05-19T01:18:31.080Z,90.22
2016-05-19T01:19:11.892Z,90.12
2016-05-19T01:20:37.584Z,90.31
2016-05-19T01:21:11.943Z,90.31
2016-05-19T01:22:11.978Z,90.31
2016-05-19T01:23:11.981Z,90.22
2016-05-19T01:24:11.999Z,90.03
2016-05-19T01:25:12.001Z,90.22
2016-05-19T01:26:12.019Z,90.98
2016-05-19T01:27:11.882Z,90.6
2016-05-19T01:28:12.104Z,90.89
2016-05-19T01:29:24.827Z,90.7
2016-05-19T01:30:12.093Z,90.98
2016-05-19T01:31:12.112Z,90.79
2016-05-19T01:32:12.145Z,90.7
2016-05-19T01:33:13.570Z,90.89
2016-05-19T01:34:12.182Z,91.46
2016-05-19T01:35:12.184Z,91.46
2016-05-19T01:36:12.250Z,91.74
2016-05-19T01:37:12.315Z,91.27
2016-05-19T01:38:24.993Z,91.84
2016-05-19T01:39:12.321Z,91.94
2016-05-19T01:40:37.981Z,92.5
2016-05-19T01:41:12.138Z,92.36
2016-05-19T01:42:12.328Z,92.55
2016-05-19T01:43:12.347Z,92.18
2016-05-19T01:44:12.350Z,93.03
2016-05-19T01:45:12.368Z,93.13
2016-05-19T01:46:12.495Z,93.6
2016-05-19T01:47:12.420Z,93.89
2016-05-19T01:48:12.438Z,93.6
2016-05-19T01:49:12.472Z,94.37
2016-05-19T01:50:12.491Z,94.65
2016-05-19T01:51:12.322Z,94.56
2016-05-19T01:52:12.511Z,95.03
2016-05-19T01:54:27.613Z,96.12
2016-05-19T01:55:27.804Z,96.46
2016-05-19T01:56:27.807Z,96.6
2016-05-19T01:57:27.809Z,96.7
2016-05-19T01:58:27.952Z,96.79
2016-05-19T01:59:27.705Z,96.7
2016-05-19T02:00:27.973Z,97.27
2016-05-19T02:01:27.898Z,97.17
2016-05-19T02:02:27.931Z,98.03
2016-05-19T02:03:27.934Z,97.55
2016-05-19T02:04:27.969Z,97.93
2016-05-19T02:05:27.971Z,97.84
2016-05-19T02:06:27.817Z,98.32
2016-05-19T02:07:28.023Z,98.5
2016-05-19T02:08:28.198Z,97.74
2016-05-19T02:09:40.732Z,97.84
2016-05-19T02:10:28.079Z,97.46
2016-05-19T02:11:27.925Z,97.36
2016-05-19T02:12:28.100Z,97.55
2016-05-19T02:13:28.134Z,96.89
2016-05-19T02:14:40.870Z,96.31
2016-05-19T02:15:28.154Z,96.12
2016-05-19T02:16:53.860Z,96.12
2016-05-19T02:17:28.206Z,96.6
2016-05-19T02:18:28.194Z,96.41
2016-05-19T02:19:37.852Z,95.84
2016-05-19T02:20:37.871Z,96.12
2016-05-19T02:21:37.889Z,96.12
2016-05-19T02:22:40.938Z,96.6
2016-05-19T02:23:37.941Z,95.84
2016-05-19T02:24:50.686Z,96.22
2016-05-19T02:25:37.970Z,96.22
2016-05-19T02:26:37.972Z,96.6
2016-05-19T02:28:09.288Z,96.7
2016-05-19T02:28:41.057Z,97.08
2016-05-19T02:29:38.028Z,97.55
2016-05-19T02:30:38.046Z,97.93
2016-05-19T02:31:38.080Z,97.65
2016-05-19T02:32:38.098Z,98.03
2016-05-19T02:33:41.023Z,98.13
2016-05-19T02:34:38.119Z,98.5
2016-05-19T02:35:38.138Z,98.5
2016-05-19T02:36:38.171Z,99.27
2016-05-19T02:37:38.190Z,99.5
2016-05-19T02:38:38.037Z,99.46
2016-05-19T02:39:38.226Z,99.41
2016-05-19T02:40:51.023Z,98.88
2016-05-19T02:41:38.334Z,99.02
2016-05-19T02:42:38.396Z,99.36
2016-05-19T02:43:38.506Z,99.08
2016-05-19T02:44:38.520Z,99.5
2016-05-19T02:45:38.579Z,99.5
2016-05-19T02:46:41.473Z,99.22
2016-05-19T02:47:38.630Z,99.88
2016-05-19T02:48:51.399Z,99.99
2016-05-19T02:49:57.948Z,99.99
2016-05-19T02:50:38.709Z,99.99
2016-05-19T02:51:38.593Z,99.99
2016-05-19T02:52:40.181Z,99.99
2016-05-19T02:53:38.781Z,99.99
2016-05-19T02:54:41.931Z,99.99
2016-05-19T02:55:38.828Z,99.99
2016-05-19T02:56:45.208Z,99.99
2016-05-19T02:57:38.883Z,99.99
2016-05-19T02:58:38.888Z,99.99
2016-05-19T02:59:38.925Z,99.99
2016-05-19T03:00:38.929Z,99.99
2016-05-19T03:01:38.947Z,99.99
2016-05-19T03:02:38.982Z,99.99
2016-05-19T03:03:38.845Z,99.99
2016-05-19T03:04:39.004Z,99.99
2016-05-19T03:05:39.024Z,99.99
2016-05-19T03:06:58.089Z,99.99
2016-05-19T03:07:51.810Z,99.99
2016-05-19T03:09:58.300Z,99.99
2016-05-19T03:10:39.116Z,99.99
2016-05-19T03:11:39.181Z,99.99
2016-05-19T03:12:39.153Z,99.99
2016-05-19T03:13:39.187Z,99.99
2016-05-19T03:14:39.190Z,99.99
2016-05-19T03:15:39.036Z,99.99
2016-05-19T03:16:39.227Z,99.99
2016-05-19T03:17:51.980Z,99.99
2016-05-19T03:18:39.279Z,99.99
2016-05-19T03:20:10.563Z,99.99
2016-05-19T03:20:54.363Z,99.99
2016-05-19T03:21:54.537Z,99.99
2016-05-19T03:22:54.555Z,99.99
2016-05-19T03:23:57.885Z,99.99
2016-05-19T03:24:57.451Z,99.99
2016-05-19T03:26:00.876Z,99.99
2016-05-19T03:26:54.643Z,99.99
2016-05-19T03:28:07.256Z,99.99
2016-05-19T03:28:54.681Z,99.99
2016-05-19T03:29:54.668Z,99.99
2016-05-19T03:30:54.717Z,99.99
2016-05-19T03:31:54.704Z,99.99
2016-05-19T03:32:54.738Z,99.99
2016-05-19T03:33:54.773Z,99.99
2016-05-19T03:34:54.823Z,99.99
2016-05-19T03:35:54.778Z,99.99
2016-05-19T03:36:54.812Z,99.99
2016-05-19T03:38:07.767Z,99.99
2016-05-19T03:38:54.816Z,99.99
2016-05-19T03:40:26.134Z,99.99
2016-05-19T03:41:04.181Z,99.99
2016-05-19T03:42:04.356Z,99.99
2016-05-19T03:43:04.421Z,99.99
2016-05-19T03:44:04.408Z,99.99
2016-05-19T03:45:04.427Z,99.99
2016-05-19T03:46:04.429Z,99.99
2016-05-19T03:47:17.182Z,99.99
2016-05-19T03:48:04.466Z,99.99
2016-05-19T03:49:30.159Z,99.65
2016-05-19T03:50:17.238Z,99.27
2016-05-19T03:51:04.521Z,99.46
2016-05-19T03:52:04.524Z,98.41
2016-05-19T03:53:07.449Z,98.32
2016-05-19T03:54:17.155Z,97.93
2016-05-19T03:55:10.922Z,97.46
2016-05-19T03:56:04.613Z,96.65
2016-05-19T03:57:04.631Z,96.22
2016-05-19T03:58:04.649Z,95.89
2016-05-19T03:59:04.668Z,95.89
2016-05-19T04:00:04.670Z,96.27
2016-05-19T04:01:04.704Z,95.32
2016-05-19T04:02:17.456Z,95.22
2016-05-19T04:03:04.740Z,95.12
2016-05-19T04:04:04.759Z,94.84
2016-05-19T04:05:04.887Z,94.27
2016-05-19T04:06:04.795Z,93.79
2016-05-19T04:07:04.876Z,93.7
2016-05-19T04:08:04.832Z,93.27
2016-05-19T04:09:04.882Z,92.94
2016-05-19T04:10:04.870Z,92.84
2016-05-19T04:11:24.090Z,92.5
2016-05-19T04:12:04.890Z,92.6
2016-05-19T04:14:14.536Z,91.94
2016-05-19T04:15:14.554Z,91.55
2016-05-19T04:16:14.416Z,91.46
2016-05-19T04:17:27.344Z,91.55
2016-05-19T04:18:27.361Z,91.46
2016-05-19T04:19:14.643Z,90.7
2016-05-19T04:20:14.677Z,90.89
2016-05-19T04:21:23.976Z,91.08
2016-05-19T04:22:14.698Z,90.79
2016-05-19T04:23:33.922Z,90.31
2016-05-19T04:24:23.891Z,90.31
2016-05-19T04:25:46.037Z,90.12
2016-05-19T04:26:14.771Z,90.26
2016-05-19T04:27:14.790Z,90.12
2016-05-19T04:28:14.824Z,89.94
2016-05-19T04:29:14.843Z,89.6
2016-05-19T04:30:14.688Z,89.84
2016-05-19T04:31:14.879Z,89.5
2016-05-19T04:32:27.634Z,89.6
2016-05-19T04:33:34.106Z,89.4
2016-05-19T04:34:18.090Z,89.69
2016-05-19T04:35:37.314Z,89.03
2016-05-19T04:36:58.785Z,88.26
2016-05-19T04:37:52.569Z,88.17
2016-05-19T04:38:52.666Z,88.45
2016-05-19T04:39:52.606Z,88.17
2016-05-19T04:40:52.545Z,88.07
2016-05-19T04:41:52.659Z,88.26
2016-05-19T04:42:52.661Z,88.26
2016-05-19T04:43:52.695Z,87.69
2016-05-19T04:44:52.713Z,87.31
2016-05-19T04:46:11.919Z,87.4
2016-05-19T04:47:27.831Z,87.12
2016-05-19T04:48:21.378Z,86.65
2016-05-19T04:49:36.524Z,86.55
2016-05-19T04:50:36.542Z,87.02
2016-05-19T04:51:36.575Z,86.07
2016-05-19T04:52:39.625Z,86.07
2016-05-19T04:53:36.596Z,86.07
2016-05-19T04:54:36.741Z,86.16
2016-05-19T04:55:49.368Z,85.45
2016-05-19T04:56:39.526Z,85.25
2016-05-19T04:58:02.342Z,85.06
2016-05-19T04:58:36.704Z,84.69
2016-05-19T04:59:36.551Z,84.59
2016-05-19T05:00:36.741Z,84.2
2016-05-19T05:01:36.759Z,83.64
2016-05-19T05:02:36.793Z,83.64
2016-05-19T05:03:55.998Z,82.68
2016-05-19T05:04:49.548Z,82.91
2016-05-19T05:06:08.113Z,81.67
2016-05-19T05:07:02.523Z,81.1
2016-05-19T05:09:08.168Z,80.57
2016-05-19T05:09:36.921Z,80.38
2016-05-19T05:10:36.908Z,80.09
2016-05-19T05:11:49.692Z,79.43
2016-05-19T05:12:36.961Z,79.14
2016-05-19T05:13:56.307Z,78.66
2016-05-19T05:14:36.872Z,78.37
2016-05-19T05:15:37.015Z,78.56
2016-05-19T05:16:37.159Z,79.43
2016-05-19T05:17:37.067Z,78.85
2016-05-19T05:18:49.820Z,78.66
2016-05-19T05:19:37.105Z,78.75
2016-05-19T05:20:56.325Z,78.47
2016-05-19T05:21:37.141Z,78.09
2016-05-19T05:23:02.830Z,77.32
2016-05-19T05:23:37.208Z,76.94
2016-05-19T05:25:52.449Z,76.31
2016-05-19T05:26:52.466Z,76.12
2016-05-19T05:27:52.329Z,75.35
2016-05-19T05:28:52.644Z,75.45
2016-05-19T05:29:52.522Z,75.07
2016-05-19T05:31:11.774Z,74.69
2016-05-19T05:31:52.574Z,74.44
2016-05-19T05:32:52.593Z,73.96
2016-05-19T05:33:52.610Z,73.77
2016-05-19T05:34:52.629Z,73.48
2016-05-19T05:35:52.648Z,72.66
2016-05-19T05:36:52.665Z,72.28
2016-05-19T05:37:52.699Z,70.84
2016-05-19T05:39:05.452Z,70.68
2016-05-19T05:39:52.737Z,70.11
2016-05-19T05:40:52.754Z,69.06
2016-05-19T05:41:52.773Z,68.96
2016-05-19T05:42:52.776Z,68.49
2016-05-19T05:43:52.810Z,68.58
2016-05-19T05:44:52.843Z,68.49
2016-05-19T05:45:52.862Z,67.56
2016-05-19T05:46:52.895Z,68.52
2016-05-19T05:47:52.898Z,67.91
2016-05-19T05:49:18.603Z,67.56
2016-05-19T05:50:08.451Z,66.61
2016-05-19T05:51:01.984Z,66.41
2016-05-19T05:52:02.222Z,66.22
2016-05-19T05:53:02.506Z,66.89
2016-05-19T05:54:02.555Z,66.8
2016-05-19T05:55:02.245Z,67.37
2016-05-19T05:56:02.092Z,67.66
2016-05-19T05:57:21.485Z,67.18
2016-05-19T05:58:02.363Z,66.64
2016-05-19T05:59:28.005Z,65.68
2016-05-19T06:00:12.008Z,65.39
2016-05-19T06:01:12.011Z,65.39
2016-05-19T06:02:12.046Z,64.37
2016-05-19T06:03:15.096Z,63.89
2016-05-19T06:04:12.238Z,63.99
2016-05-19T06:05:18.319Z,63.99
2016-05-19T06:06:12.244Z,63.7
2016-05-19T06:07:12.262Z,63.42
2016-05-19T06:08:12.218Z,63.22
2016-05-19T06:09:12.079Z,63.13
2016-05-19T06:10:12.207Z,62.65
2016-05-19T06:11:12.351Z,62.77
2016-05-19T06:12:12.259Z,63.26
2016-05-19T06:13:13.700Z,62.68
2016-05-19T06:14:12.328Z,62.74
2016-05-19T06:15:12.346Z,62.65
2016-05-19T06:16:12.365Z,63.22
2016-05-19T06:17:12.383Z,63.89
2016-05-19T06:18:12.417Z,64.09
2016-05-19T06:19:13.825Z,63.7
2016-05-19T06:20:12.453Z,63.7
2016-05-19T06:21:12.455Z,64.37
2016-05-19T06:22:12.490Z,65.58
2016-05-19T06:23:12.508Z,64.82
2016-05-19T06:24:31.730Z,64.92
2016-05-19T06:25:12.561Z,64.92
2016-05-19T06:26:38.253Z,65.68
2016-05-19T06:27:14.019Z,65.58
2016-05-19T06:28:12.630Z,64.82
2016-05-19T06:29:31.696Z,65.58
2016-05-19T06:30:15.668Z,64.92
2016-05-19T06:31:15.701Z,64.28
2016-05-19T06:32:15.720Z,64.34
2016-05-19T06:33:18.926Z,63.6
2016-05-19T06:34:15.757Z,63.32
2016-05-19T06:35:15.822Z,63.22
2016-05-19T06:36:15.824Z,62.65
2016-05-19T06:37:15.843Z,62.74
2016-05-19T06:38:28.579Z,62.74
2016-05-19T06:39:15.754Z,62.74
2016-05-19T06:40:34.948Z,62.26
2016-05-19T06:41:15.776Z,62.36
2016-05-19T06:42:47.234Z,61.79
2016-05-19T06:43:15.968Z,62.2
2016-05-19T06:44:16.034Z,61.6
2016-05-19T06:45:16.068Z,61.63
2016-05-19T06:46:16.148Z,61.91
2016-05-19T06:47:16.057Z,61.46
2016-05-19T06:48:28.826Z,60.31
2016-05-19T06:49:16.109Z,60.5
2016-05-19T06:50:41.817Z,60.6
2016-05-19T06:51:25.755Z,60.22
2016-05-19T06:52:25.789Z,59.64
2016-05-19T06:53:38.561Z,58.87
2016-05-19T06:54:25.842Z,59.36
2016-05-19T06:55:25.860Z,59.64
2016-05-19T06:56:28.941Z,59.93
2016-05-19T06:57:38.712Z,60.12
2016-05-19T06:58:25.947Z,59.74
2016-05-19T06:59:25.791Z,59.64
2016-05-19T07:00:25.983Z,59.48
2016-05-19T07:01:26.001Z,59.38
2016-05-19T07:02:29.066Z,58.91
2016-05-19T07:03:26.068Z,57.5
2016-05-19T07:04:26.071Z,57.21
2016-05-19T07:05:26.105Z,56.27
2016-05-19T07:06:25.968Z,55.24
2016-05-19T07:07:26.157Z,54.41
2016-05-19T07:08:26.160Z,53.45
2016-05-19T07:09:27.616Z,52.42
2016-05-19T07:10:38.981Z,52.03
2016-05-19T07:11:26.278Z,51.09
2016-05-19T07:12:45.486Z,50.99
2016-05-19T07:13:27.736Z,50.71
2016-05-19T07:15:41.587Z,49.94
2016-05-19T07:16:41.606Z,48.9
2016-05-19T07:17:43.047Z,48.33
2016-05-19T07:18:41.721Z,48.61
2016-05-19T07:19:41.692Z,47.77
2016-05-19T07:20:41.805Z,47.12
2016-05-19T07:21:41.558Z,45.87
2016-05-19T07:22:41.747Z,45.6
2016-05-19T07:23:41.766Z,45.12
2016-05-19T07:24:43.222Z,43.12
2016-05-19T07:25:41.834Z,43.41
2016-05-19T07:26:41.852Z,41.78
2016-05-19T07:27:41.870Z,40.84
2016-05-19T07:28:41.889Z,39.61
2016-05-19T07:29:41.923Z,38.39
2016-05-19T07:30:41.785Z,36.47
2016-05-19T07:31:41.850Z,36
2016-05-19T07:32:41.868Z,34.39
2016-05-19T07:33:42.027Z,32.47
2016-05-19T07:34:54.796Z,28.74
2016-05-19T07:35:42.111Z,26.18
2016-05-19T07:36:42.144Z,25.32
2016-05-19T07:37:45.179Z,25.51
2016-05-19T07:38:42.196Z,26.86
2016-05-19T07:39:42.059Z,27.9
2016-05-19T07:40:42.234Z,28.75
2016-05-19T07:41:42.111Z,28.83
2016-05-19T07:43:01.520Z,28.93
2016-05-19T07:43:45.195Z,27.58
2016-05-19T07:44:45.384Z,27.12
2016-05-19T07:45:45.435Z,25.12
2016-05-19T07:47:16.734Z,21.26
2016-05-19T07:47:46.908Z,21.19
2016-05-19T07:48:45.521Z,20.53
2016-05-19T07:49:58.274Z,19.27
2016-05-19T07:51:04.776Z,19
2016-05-19T07:52:16.889Z,17.35
2016-05-19T07:52:45.625Z,16.88
2016-05-19T07:53:46.019Z,16.49
2016-05-19T07:54:47.114Z,16.5
2016-05-19T07:55:45.727Z,15.33
2016-05-19T07:57:04.964Z,14.35
2016-05-19T07:57:45.795Z,14.54
2016-05-19T07:59:11.500Z,15.22
2016-05-19T07:59:45.863Z,15.31
2016-05-19T08:00:45.897Z,15.8
2016-05-19T08:01:45.930Z,15.61
2016-05-19T08:02:58.699Z,16.78
2016-05-19T08:03:58.732Z,16.88
2016-05-19T08:05:17.313Z,16.19
2016-05-19T08:06:11.754Z,16.86
2016-05-19T08:06:46.100Z,17.82
2016-05-19T08:07:45.978Z,18.6
2016-05-19T08:08:46.185Z,20.45
2016-05-19T08:09:49.233Z,22.38
2016-05-19T08:10:46.221Z,21.97
2016-05-19T08:12:05.629Z,24.19
2016-05-19T08:12:46.304Z,24.65
2016-05-19T08:13:46.338Z,24.04
2016-05-19T08:14:46.371Z,25.09
2016-05-19T08:15:46.406Z,26.34
2016-05-19T08:16:46.252Z,29.04
2016-05-19T08:18:05.662Z,28.64
2016-05-19T08:18:46.507Z,28.63
2016-05-19T08:20:12.214Z,30.45
2016-05-19T08:20:48.028Z,30.34
2016-05-19T08:21:46.594Z,27.04
2016-05-19T08:22:59.362Z,27.79
2016-05-19T08:23:46.849Z,29.5
2016-05-19T08:25:05.898Z,30.46
2016-05-19T08:25:46.713Z,31.41
2016-05-19T08:26:46.747Z,32.09
2016-05-19T08:27:46.797Z,33.33
2016-05-19T08:28:46.816Z,33.98
2016-05-19T08:29:59.584Z,33.6
2016-05-19T08:30:59.618Z,33.58
2016-05-19T08:31:46.917Z,34.45
2016-05-19T08:32:46.936Z,35.8
2016-05-19T08:34:18.251Z,36.11
2016-05-19T08:34:46.989Z,37.17
2016-05-19T08:35:47.038Z,36.88
2016-05-19T08:36:48.556Z,36.3
2016-05-19T08:38:06.293Z,34.66
2016-05-19T08:38:47.061Z,34.18
2016-05-19T08:40:12.829Z,34.86
2016-05-19T08:40:47.176Z,32.73
2016-05-19T08:41:47.038Z,34.56
2016-05-19T08:42:56.760Z,35.34
2016-05-19T08:43:56.763Z,35.06
2016-05-19T08:44:56.812Z,34.29
2016-05-19T08:45:56.815Z,34.1
2016-05-19T08:46:58.270Z,34.39
2016-05-19T08:47:56.742Z,34.87
2016-05-19T08:48:56.916Z,35.36
2016-05-19T08:50:09.794Z,35.45
2016-05-19T08:50:56.984Z,34.87
2016-05-19T08:51:56.846Z,33.91
2016-05-19T08:52:57.020Z,34.29
2016-05-19T08:53:57.820Z,34
2016-05-19T08:54:58.573Z,34
2016-05-19T08:56:09.670Z,32.36
2016-05-19T08:57:00.000Z,33.12
2016-05-19T08:57:57.159Z,33.5
2016-05-19T08:59:16.380Z,35.05
2016-05-19T09:01:29.027Z,35.72
2016-05-19T09:01:57.264Z,34.86
2016-05-19T09:02:57.298Z,35.63
2016-05-19T09:03:57.332Z,35.34
2016-05-19T09:05:09.975Z,35.53
2016-05-19T09:05:57.384Z,35.92
2016-05-19T09:06:57.402Z,34.94
2016-05-19T09:08:14.170Z,35.9
2016-05-19T09:09:14.188Z,36.38
2016-05-19T09:10:13.613Z,36.67
2016-05-19T09:11:13.397Z,37.15
2016-05-19T09:12:26.368Z,38.01
2016-05-19T09:13:13.450Z,38.02
2016-05-19T09:14:39.251Z,36.29
2016-05-19T09:15:13.579Z,36.36
2016-05-19T09:16:13.521Z,36.85
2016-05-19T09:17:13.679Z,37.13
2016-05-19T09:18:13.698Z,37.33
2016-05-19T09:19:32.684Z,37.79
2016-05-19T09:20:13.641Z,37.43
2016-05-19T09:21:45.005Z,37.71
2016-05-19T09:22:13.708Z,38.2
2016-05-19T09:23:13.601Z,38.66
2016-05-19T09:24:15.167Z,38.2
2016-05-19T09:25:13.779Z,38.28
2016-05-19T09:26:13.797Z,40.51
2016-05-19T09:27:13.847Z,38.68
2016-05-19T09:28:13.864Z,37.73
2016-05-19T09:29:13.883Z,37.15
2016-05-19T09:30:33.167Z,37.45
2016-05-19T09:31:13.936Z,36.29
2016-05-19T09:32:45.253Z,37.15
2016-05-19T09:33:14.003Z,37.15
2016-05-19T09:34:13.866Z,36.29
2016-05-19T09:35:15.446Z,36.07
2016-05-19T09:36:14.074Z,37.33
2016-05-19T09:37:26.904Z,36.57
2016-05-19T09:38:14.142Z,37.23
2016-05-19T09:39:39.833Z,35.8
2016-05-19T09:40:15.600Z,34.94
2016-05-19T09:41:14.213Z,35.22
2016-05-19T09:42:14.230Z,35.03
2016-05-19T09:43:14.265Z,34.94
2016-05-19T09:44:14.283Z,34.94
2016-05-19T09:45:27.051Z,35.71
2016-05-19T09:46:14.335Z,36.38
2016-05-19T09:47:14.369Z,36
2016-05-19T09:48:14.388Z,36.65
2016-05-19T09:49:14.421Z,36.19
2016-05-19T09:50:33.643Z,35.03
2016-05-19T09:51:14.459Z,34.94
2016-05-19T09:52:14.539Z,34.45
2016-05-19T09:53:14.526Z,35.32
2016-05-19T09:54:27.295Z,34.84
2016-05-19T09:55:27.328Z,34.45
2016-05-19T09:56:14.612Z,34.36
2016-05-19T09:57:14.631Z,34.63
2016-05-19T09:58:14.648Z,34.92
2016-05-19T09:59:14.667Z,35.3
2016-05-19T10:00:14.701Z,34.44
2016-05-19T10:01:14.828Z,35.02
2016-05-19T10:02:14.769Z,34.26
2016-05-19T10:03:27.537Z,35.11
2016-05-19T10:04:14.822Z,35.4
2016-05-19T10:05:40.527Z,35.21
2016-05-19T10:06:14.889Z,34.74
2016-05-19T10:07:14.752Z,35.42
2016-05-19T10:08:14.911Z,35.03
2016-05-19T10:09:14.960Z,34.94
2016-05-19T10:10:27.697Z,35.13
2016-05-19T10:11:27.762Z,35.42
2016-05-19T10:12:34.233Z,35.32
2016-05-19T10:13:15.064Z,35.03
2016-05-19T10:14:15.130Z,35.14
2016-05-19T10:15:14.944Z,34.94
2016-05-19T10:16:15.135Z,34.74
2016-05-19T10:17:15.169Z,35.42
2016-05-19T10:18:15.202Z,35.61
2016-05-19T10:19:27.830Z,34.36
2016-05-19T10:20:15.240Z,34.45
2016-05-19T10:21:15.290Z,34.28
2016-05-19T10:22:18.463Z,33.4
2016-05-19T10:23:18.498Z,33.98
2016-05-19T10:24:21.547Z,34.66
2016-05-19T10:25:49.834Z,34.84
2016-05-19T10:26:33.865Z,35.32
2016-05-19T10:27:33.946Z,34.08
2016-05-19T10:28:53.061Z,33.8
2016-05-19T10:29:34.029Z,34.16
2016-05-19T10:30:33.751Z,34.95
2016-05-19T10:31:53.209Z,34.18
2016-05-19T10:32:33.803Z,35.42
2016-05-19T10:33:33.993Z,34.38
2016-05-19T10:34:35.465Z,34.08
2016-05-19T10:35:46.798Z,33.12
2016-05-19T10:36:46.816Z,34.39
2016-05-19T10:37:33.941Z,33.14
2016-05-19T10:38:34.131Z,32.26
2016-05-19T10:39:34.166Z,32.28
2016-05-19T10:40:49.108Z,31.99
2016-05-19T10:41:49.299Z,32.28
2016-05-19T10:42:49.333Z,31.41
2016-05-19T10:43:49.194Z,32.86
2016-05-19T10:45:08.604Z,33.83
2016-05-19T10:45:49.419Z,33.36
2016-05-19T10:47:20.813Z,32.87
2016-05-19T10:47:49.471Z,32.12
2016-05-19T10:48:49.552Z,30.96
2016-05-19T10:50:04.648Z,32.52
2016-05-19T10:51:04.682Z,31.07
2016-05-19T10:53:17.235Z,28.56
2016-05-19T10:54:17.284Z,28.86
2016-05-19T10:55:26.787Z,29.84
2016-05-19T10:56:26.868Z,30.04
2016-05-19T10:57:26.839Z,29.95
2016-05-19T10:58:39.622Z,29.47
2016-05-19T10:59:26.907Z,29.1
2016-05-19T11:00:52.600Z,27.06
2016-05-19T11:01:28.365Z,26.97
2016-05-19T11:02:26.853Z,24.74
2016-05-19T11:03:27.011Z,23.87
2016-05-19T11:04:39.780Z,23.77
2016-05-19T11:05:27.094Z,23.95
2016-05-19T11:06:52.772Z,24.54
2016-05-19T11:07:36.725Z,25.79
2016-05-19T11:08:36.744Z,26.67
2016-05-19T11:09:36.778Z,27.36
2016-05-19T11:10:36.811Z,25.73
2016-05-19T11:11:36.891Z,24.76
2016-05-19T11:12:49.617Z,23.41
2016-05-19T11:13:36.898Z,22.83
2016-05-19T11:14:36.932Z,23.22
2016-05-19T11:15:36.950Z,23.22
2016-05-19T11:16:36.999Z,22.54
2016-05-19T11:17:37.018Z,22.44
2016-05-19T11:18:37.051Z,21.96
2016-05-19T11:19:37.085Z,22.44
2016-05-19T11:20:37.151Z,22.52
2016-05-19T11:21:49.734Z,23.76
2016-05-19T11:22:37.171Z,25.08
2016-05-19T11:23:56.349Z,25.27
2016-05-19T11:24:37.209Z,25.74
2016-05-19T11:25:38.680Z,26.04
2016-05-19T11:26:37.276Z,25.74
2016-05-19T11:27:50.032Z,27.87
2016-05-19T11:28:37.360Z,27.4
2016-05-19T11:29:37.473Z,25.96
2016-05-19T11:30:50.134Z,26.74
2016-05-19T11:31:37.399Z,28.19
2016-05-19T11:34:18.375Z,24.62
2016-05-19T11:34:52.738Z,24.91
2016-05-19T11:35:52.772Z,25.77
2016-05-19T11:36:52.806Z,23.85
2016-05-19T11:37:52.824Z,25.68
2016-05-19T11:38:52.702Z,26.27
2016-05-19T11:39:52.922Z,25.31
2016-05-19T11:40:52.910Z,23.86
2016-05-19T11:41:53.008Z,24.73
2016-05-19T11:42:52.994Z,24.04
2016-05-19T11:43:52.996Z,24.62
2016-05-19T11:45:12.077Z,24.62
2016-05-19T11:45:53.049Z,25.01
2016-05-19T11:47:24.402Z,24.62
2016-05-19T11:48:02.679Z,23.76
2016-05-19T11:49:02.722Z,23.75
2016-05-19T11:50:02.797Z,23.75
2016-05-19T11:51:02.855Z,24.23
2016-05-19T11:52:02.906Z,24.71
2016-05-19T11:53:02.813Z,24.79
2016-05-19T11:54:02.846Z,25.27
2016-05-19T11:55:03.035Z,25.74
2016-05-19T11:56:15.818Z,26.92
2016-05-19T11:57:03.170Z,26.43
2016-05-19T11:58:03.147Z,27.11
2016-05-19T11:59:03.186Z,26.54
2016-05-19T12:00:28.898Z,26.56
2016-05-19T12:01:03.250Z,25.89
2016-05-19T12:02:03.286Z,23.86
2016-05-19T12:03:03.337Z,22.99
2016-05-19T12:04:03.341Z,23.93
2016-05-19T12:05:03.378Z,24.22
2016-05-19T12:06:03.414Z,25.18
2016-05-19T12:07:03.432Z,25.35
2016-05-19T12:08:34.749Z,27.19
2016-05-19T12:09:44.611Z,26.03
2016-05-19T12:10:18.958Z,24.68
2016-05-19T12:11:18.993Z,24.78
2016-05-19T12:12:19.028Z,26.7
2016-05-19T12:13:31.781Z,28.14
2016-05-19T12:14:31.987Z,28.91
2016-05-19T12:15:46.599Z,28.81
2016-05-19T12:16:19.134Z,29.01
2016-05-19T12:17:50.452Z,28.81
2016-05-19T12:18:31.983Z,28.04
2016-05-19T12:19:19.220Z,27.94
2016-05-19T12:20:19.254Z,28.91
2016-05-19T12:21:32.006Z,29.12
2016-05-19T12:22:44.993Z,27.76
2016-05-19T12:23:38.543Z,28.07
2016-05-19T12:24:54.079Z,27.2
2016-05-19T12:25:22.829Z,27.79
2016-05-19T12:26:22.832Z,28.96
2016-05-19T12:27:22.866Z,27.31
2016-05-19T12:28:27.401Z,27.71
2016-05-19T12:29:22.934Z,26.75
2016-05-19T12:30:22.953Z,25.68
2016-05-19T12:31:22.987Z,26.46
2016-05-19T12:32:23.005Z,26.75
2016-05-19T12:33:23.086Z,26.17
2016-05-19T12:34:23.057Z,24.63
2016-05-19T12:35:23.106Z,23.95
2016-05-19T12:36:23.140Z,23.86
2016-05-19T12:37:23.143Z,23.86
2016-05-19T12:38:23.193Z,23.27
2016-05-19T12:39:23.227Z,23.47
2016-05-19T12:40:23.245Z,23.75
2016-05-19T12:41:29.545Z,23.85
2016-05-19T12:42:23.314Z,23.57
2016-05-19T12:43:49.066Z,24.63
2016-05-19T12:44:34.553Z,25.7
2016-05-19T12:45:33.180Z,25.02
2016-05-19T12:46:33.042Z,23.57
2016-05-19T12:47:45.983Z,23.26
2016-05-19T12:48:33.266Z,23.85
2016-05-19T12:49:33.285Z,23.55
2016-05-19T12:50:33.319Z,23.83
2016-05-19T12:51:58.855Z,25.66
2016-05-19T12:52:33.371Z,26.25
2016-05-19T12:53:33.405Z,26.82
2016-05-19T12:54:46.174Z,26.82
2016-05-19T12:55:33.457Z,26.92
2016-05-19T12:56:59.166Z,27.21
2016-05-19T12:57:43.104Z,26.82
2016-05-19T12:58:43.121Z,26.25
2016-05-19T12:59:43.172Z,27.58
2016-05-19T13:01:02.396Z,28.92
2016-05-19T13:01:43.208Z,28.17
2016-05-19T13:02:43.085Z,29.52
2016-05-19T13:03:43.260Z,29.91
2016-05-19T13:04:43.340Z,29.91
2016-05-19T13:05:43.343Z,29.61
2016-05-19T13:06:56.099Z,29.05
2016-05-19T13:07:43.396Z,29.83
2016-05-19T13:08:46.462Z,27.98
2016-05-19T13:09:43.354Z,28.08
2016-05-19T13:11:02.703Z,28.47